Time;durP1;ratioP1;P1;durP2;ratioP2;P2;SDS_P1;SDS_P2;PMS_P1;PMS_P2;Temp;Humidity;BMP_temperature;BMP_pressure;BME280_temperature;BME280_humidity;BME280_pressure;Samples;Min_cycle;Max_cycle;Signal;HPM_P1;HPM_P2
2023/01/26 00:01:28;;;;;;;80.93;34.50;;;;;;;;;;4996824;28;20285;-60
2023/01/26 00:03:56;;;;;;;125.93;42.60;;;;;;;;;;4996519;28;20241;-59
2023/01/26 00:06:25;;;;;;;100.27;38.13;;;;;;;;;;4996324;28;20217;-60
2023/01/26 00:08:54;;;;;;;89.53;35.70;;;;;;;;;;4996088;28;20220;-59
2023/01/26 00:11:25;;;;;;;74.80;33.47;;;;;;;;;;4996799;28;20230;-59
2023/01/26 00:13:56;;;;;;;139.47;47.87;;;;;;;;;;4995944;28;20619;-60
2023/01/26 00:16:24;;;;;;;74.67;32.40;;;;;;;;;;4996367;28;20225;-59
2023/01/26 00:18:52;;;;;;;58.00;27.90;;;;;;;;;;4995901;28;20357;-59
2023/01/26 00:21:21;;;;;;;70.03;32.07;;;;;;;;;;4995832;28;20240;-59
2023/01/26 00:23:49;;;;;;;68.50;30.53;;;;;;;;;;4995821;28;20710;-59
2023/01/26 00:26:19;;;;;;;62.97;30.13;;;;;;;;;;4995005;28;20206;-60
2023/01/26 00:28:47;;;;;;;66.70;28.97;;;;;;;;;;4996043;28;20537;-60
2023/01/26 00:31:24;;;;;;;157.90;59.13;;;;;;;;;;4993859;28;20728;-57
2023/01/26 00:33:53;;;;;;;114.87;41.87;;;;;;;;;;4996622;28;20194;-59
2023/01/26 00:36:20;;;;;;;113.07;41.80;;;;;;;;;;4995248;28;20209;-59
2023/01/26 00:38:47;;;;;;;107.67;38.30;;;;;;;;;;4995144;28;20217;-59
2023/01/26 00:44:01;;;;;;;59.57;29.73;;;;;;;;;;4994895;28;20198;-59
2023/01/26 00:46:28;;;;;;;61.40;28.80;;;;;;;;;;4995788;28;20586;-59
2023/01/26 00:48:56;;;;;;;58.57;26.97;;;;;;;;;;4994666;28;20643;-60
2023/01/26 00:51:23;;;;;;;95.07;39.00;;;;;;;;;;4994785;28;20272;-59
2023/01/26 00:53:50;;;;;;;149.67;56.37;;;;;;;;;;4995521;28;20301;-60
2023/01/26 00:56:18;;;;;;;68.43;33.17;;;;;;;;;;4995817;28;20256;-59
2023/01/26 00:58:45;;;;;;;67.03;29.57;;;;;;;;;;4995419;28;20212;-60
2023/01/26 01:01:13;;;;;;;69.67;32.43;;;;;;;;;;4995635;28;20206;-60
2023/01/26 01:03:41;;;;;;;70.90;31.20;;;;;;;;;;4994493;28;20238;-59
2023/01/26 01:06:08;;;;;;;63.90;31.13;;;;;;;;;;4995806;28;20210;-59
2023/01/26 01:08:36;;;;;;;63.53;30.67;;;;;;;;;;5011403;28;20193;-59
2023/01/26 01:11:05;;;;;;;66.70;30.83;;;;;;;;;;5014088;28;20638;-60
2023/01/26 01:13:32;;;;;;;77.30;32.57;;;;;;;;;;5015073;28;20209;-59
2023/01/26 01:15:59;;;;;;;65.77;30.83;;;;;;;;;;5013894;28;20232;-59
2023/01/26 01:18:26;;;;;;;72.87;33.27;;;;;;;;;;5014095;28;20206;-60
2023/01/26 01:20:53;;;;;;;73.60;32.40;;;;;;;;;;5014059;28;20661;-59
2023/01/26 01:23:21;;;;;;;75.20;33.20;;;;;;;;;;5014944;28;20208;-59
2023/01/26 01:25:56;;;;;;;73.93;32.30;;;;;;;;;;5014738;28;20233;-59
2023/01/26 01:28:23;;;;;;;71.33;31.60;;;;;;;;;;5015004;28;20201;-59
2023/01/26 01:30:50;;;;;;;71.33;31.37;;;;;;;;;;5014081;28;20225;-59
2023/01/26 01:33:18;;;;;;;67.17;31.80;;;;;;;;;;5014028;28;20221;-60
2023/01/26 01:35:58;;;;;;;80.67;35.53;;;;;;;;;;5012422;28;20197;-59
2023/01/26 01:38:26;;;;;;;74.47;32.67;;;;;;;;;;4995059;28;20202;-59
2023/01/26 01:40:54;;;;;;;77.03;32.80;;;;;;;;;;4995012;28;20261;-59
2023/01/26 01:43:22;;;;;;;77.70;32.00;;;;;;;;;;4997731;28;20217;-60
2023/01/26 01:45:53;;;;;;;71.10;33.37;;;;;;;;;;4997747;28;20202;-60
2023/01/26 01:48:42;;;;;;;75.03;34.13;;;;;;;;;;4998848;28;20194;-59
2023/01/26 01:51:33;;;;;;;80.77;33.13;;;;;;;;;;4998035;28;20198;-59
2023/01/26 01:54:04;;;;;;;76.10;32.07;;;;;;;;;;4997749;28;20190;-60
2023/01/26 01:56:31;;;;;;;79.13;34.93;;;;;;;;;;4997710;28;20642;-60
2023/01/26 01:58:59;;;;;;;75.30;33.87;;;;;;;;;;4981692;28;20203;-59
2023/01/26 02:01:26;;;;;;;73.67;33.97;;;;;;;;;;4999366;28;20592;-60
2023/01/26 02:03:59;;;;;;;74.90;33.37;;;;;;;;;;4998703;28;20245;-60
2023/01/26 02:06:38;;;;;;;84.33;35.73;;;;;;;;;;4997553;28;20277;-59
2023/01/26 02:09:06;;;;;;;76.17;33.57;;;;;;;;;;4981532;28;20205;-59
2023/01/26 02:11:43;;;;;;;90.23;39.10;;;;;;;;;;4997513;28;20268;-59
2023/01/26 02:14:13;;;;;;;116.67;45.40;;;;;;;;;;4982052;28;20530;-59
2023/01/26 02:16:40;;;;;;;118.77;51.80;;;;;;;;;;4997574;28;20198;-60
2023/01/26 02:19:16;;;;;;;116.33;52.60;;;;;;;;;;4997344;28;20662;-59
2023/01/26 02:21:44;;;;;;;102.67;46.77;;;;;;;;;;4997060;28;20244;-59
2023/01/26 02:24:31;;;;;;;184.97;59.40;;;;;;;;;;4997425;28;20530;-59
2023/01/26 02:26:58;;;;;;;210.47;61.10;;;;;;;;;;4997096;28;20665;-59
2023/01/26 02:29:27;;;;;;;189.33;58.53;;;;;;;;;;4997139;28;20213;-60
2023/01/26 02:31:55;;;;;;;160.23;51.33;;;;;;;;;;4981242;28;20236;-60
2023/01/26 02:34:27;;;;;;;120.83;44.90;;;;;;;;;;4997197;28;20210;-59
2023/01/26 02:36:56;;;;;;;118.67;41.90;;;;;;;;;;4997896;28;20205;-60
2023/01/26 02:39:42;;;;;;;475.60;179.70;;;;;;;;;;4997163;28;20248;-60
2023/01/26 02:44:55;;;;;;;181.83;56.73;;;;;;;;;;5012953;28;20705;-59
2023/01/26 02:47:22;;;;;;;130.60;48.10;;;;;;;;;;4997119;28;20206;-60
2023/01/26 02:49:50;;;;;;;140.07;50.30;;;;;;;;;;4997633;28;20202;-60
2023/01/26 02:52:21;;;;;;;112.80;46.00;;;;;;;;;;4996882;28;20233;-60
2023/01/26 02:57:45;;;;;;;327.10;120.87;;;;;;;;;;5013107;28;20219;-59
2023/01/26 03:00:21;;;;;;;218.27;95.83;;;;;;;;;;4996773;28;20205;-60
2023/01/26 03:02:52;;;;;;;111.07;63.77;;;;;;;;;;4996669;28;20230;-60
2023/01/26 03:05:20;;;;;;;107.43;48.20;;;;;;;;;;4997224;28;20214;-60
2023/01/26 03:07:47;;;;;;;149.97;52.30;;;;;;;;;;4996529;28;20205;-60
2023/01/26 03:10:16;;;;;;;103.53;43.13;;;;;;;;;;4996972;28;20221;-60
2023/01/26 03:12:44;;;;;;;94.27;37.57;;;;;;;;;;4996157;28;20218;-60
2023/01/26 03:29:11;;;;;;;100.37;37.17;;;;;;;;;;5013061;28;20293;-60
2023/01/26 03:31:40;;;;;;;82.40;34.43;;;;;;;;;;4995888;28;20272;-60
2023/01/26 03:34:08;;;;;;;74.63;31.60;;;;;;;;;;4997195;28;20232;-60
2023/01/26 03:36:36;;;;;;;74.50;31.20;;;;;;;;;;4996175;28;20214;-59
2023/01/26 03:41:06;;;;;;;62.20;27.83;;;;;;;;;;4995968;28;20206;-59
2023/01/26 03:56:23;;;;;;;70.57;33.30;;;;;;;;;;4996381;28;20260;-59
2023/01/26 03:58:56;;;;;;;59.73;28.60;;;;;;;;;;4996097;28;20193;-59
2023/01/26 04:01:26;;;;;;;56.90;26.30;;;;;;;;;;4995557;28;20206;-59
2023/01/26 04:09:35;;;;;;;80.63;32.83;;;;;;;;;;4995855;28;20202;-59
2023/01/26 04:12:03;;;;;;;114.70;36.80;;;;;;;;;;4996198;28;20292;-59
2023/01/26 04:22:54;;;;;;;60.13;25.47;;;;;;;;;;4981755;28;20209;-59
2023/01/26 04:25:22;;;;;;;153.53;54.67;;;;;;;;;;4995303;28;20513;-59
2023/01/26 04:27:50;;;;;;;86.77;33.87;;;;;;;;;;4994921;28;20225;-59
2023/01/26 04:30:18;;;;;;;110.20;34.30;;;;;;;;;;4994838;28;20217;-60
2023/01/26 04:32:45;;;;;;;370.43;162.23;;;;;;;;;;4991357;28;20222;-60
2023/01/26 04:35:13;;;;;;;127.10;61.03;;;;;;;;;;4984135;28;20215;-56
2023/01/26 04:37:41;;;;;;;168.37;61.83;;;;;;;;;;4990220;28;20623;-57
2023/01/26 04:40:09;;;;;;;290.07;91.43;;;;;;;;;;4994449;28;20194;-59
2023/01/26 04:42:37;;;;;;;347.83;103.77;;;;;;;;;;4994416;28;20216;-59
2023/01/26 04:45:06;;;;;;;668.33;394.17;;;;;;;;;;4975624;28;20206;-59
2023/01/26 04:47:33;;;;;;;234.43;132.40;;;;;;;;;;4975475;28;20614;-59
2023/01/26 04:50:02;;;;;;;186.93;123.57;;;;;;;;;;4975235;28;20218;-59
2023/01/26 04:52:30;;;;;;;105.13;65.80;;;;;;;;;;4987771;28;20230;-60
2023/01/26 04:54:58;;;;;;;270.33;90.10;;;;;;;;;;4991757;28;20202;-59
2023/01/26 04:57:26;;;;;;;109.93;42.00;;;;;;;;;;4991836;28;20203;-59
2023/01/26 04:59:54;;;;;;;133.33;44.80;;;;;;;;;;4991479;28;20202;-60
2023/01/26 05:02:21;;;;;;;86.30;34.80;;;;;;;;;;4991017;28;20309;-59
2023/01/26 05:04:49;;;;;;;98.57;37.87;;;;;;;;;;4991158;28;20203;-59
2023/01/26 05:07:16;;;;;;;58.67;29.77;;;;;;;;;;4976104;28;20199;-59
2023/01/26 05:09:45;;;;;;;206.27;64.67;;;;;;;;;;4990638;28;20627;-58
2023/01/26 05:12:42;;;;;;;101.23;41.40;;;;;;;;;;4990616;28;20682;-56
2023/01/26 05:15:21;;;;;;;514.47;228.47;;;;;;;;;;5002106;28;20232;-57
2023/01/26 05:18:24;;;;;;;176.30;83.80;;;;;;;;;;4909629;29;20225;-59
2023/01/26 05:21:02;;;;;;;110.63;44.73;;;;;;;;;;4918811;29;20673;-58
2023/01/26 05:23:38;;;;;;;56.23;26.37;;;;;;;;;;4919530;29;20315;-58
2023/01/26 05:26:34;;;;;;;97.83;35.83;;;;;;;;;;4910719;29;20272;-59
2023/01/26 05:29:04;;;;;;;118.70;41.50;;;;;;;;;;4919675;29;20331;-59
2023/01/26 05:31:31;;;;;;;125.70;44.20;;;;;;;;;;4919359;29;20228;-59
2023/01/26 05:33:58;;;;;;;96.47;38.40;;;;;;;;;;4919415;29;20618;-59
2023/01/26 05:36:26;;;;;;;74.57;32.00;;;;;;;;;;4919440;29;20244;-59
2023/01/26 05:38:54;;;;;;;150.97;56.43;;;;;;;;;;4919364;29;20288;-60
2023/01/26 05:41:24;;;;;;;60.23;27.27;;;;;;;;;;4918748;29;20243;-59
2023/01/26 05:44:14;;;;;;;68.57;23.97;;;;;;;;;;4916510;29;20228;-60
2023/01/26 05:46:50;;;;;;;147.57;51.83;;;;;;;;;;4918773;29;20594;-59
2023/01/26 05:49:17;;;;;;;174.43;98.37;;;;;;;;;;4919135;29;20236;-58
2023/01/26 05:51:45;;;;;;;85.10;42.90;;;;;;;;;;4932972;28;20227;-59
2023/01/26 05:54:13;;;;;;;58.63;27.27;;;;;;;;;;4977413;28;20262;-59
2023/01/26 05:56:41;;;;;;;63.13;24.87;;;;;;;;;;5005208;28;20230;-57
2023/01/26 05:59:08;;;;;;;41.20;20.10;;;;;;;;;;5009765;28;20239;-59
2023/01/26 06:01:35;;;;;;;48.03;19.87;;;;;;;;;;4977100;28;20227;-59
2023/01/26 06:04:06;;;;;;;39.00;18.13;;;;;;;;;;4977065;28;20238;-59
2023/01/26 06:06:40;;;;;;;39.17;18.33;;;;;;;;;;5009001;28;20689;-57
2023/01/26 06:09:19;;;;;;;54.40;20.93;;;;;;;;;;4984921;28;20284;-59
2023/01/26 06:12:02;;;;;;;24.17;13.30;;;;;;;;;;4992555;28;20682;-59
2023/01/26 06:14:49;;;;;;;26.57;11.20;;;;;;;;;;4997171;28;20190;-59
2023/01/26 06:17:17;;;;;;;45.07;16.27;;;;;;;;;;5013612;28;20202;-59
2023/01/26 06:19:45;;;;;;;77.53;32.70;;;;;;;;;;4996083;28;20202;-60
2023/01/26 06:22:13;;;;;;;184.13;119.60;;;;;;;;;;5013416;28;20265;-60
2023/01/26 06:24:45;;;;;;;45.53;23.73;;;;;;;;;;4997250;28;20194;-60
2023/01/26 06:27:14;;;;;;;27.60;14.67;;;;;;;;;;4997761;28;20642;-60
2023/01/26 06:29:43;;;;;;;33.60;15.07;;;;;;;;;;4996950;28;20217;-60
2023/01/26 06:32:14;;;;;;;32.57;14.23;;;;;;;;;;4996739;28;20213;-60
2023/01/26 06:34:43;;;;;;;33.13;14.60;;;;;;;;;;4996728;28;20229;-59
2023/01/26 06:37:12;;;;;;;26.83;12.03;;;;;;;;;;4996903;28;20210;-59
2023/01/26 06:39:40;;;;;;;22.33;12.03;;;;;;;;;;4996823;28;20198;-60
2023/01/26 06:42:08;;;;;;;78.87;31.43;;;;;;;;;;4996945;28;20519;-60
2023/01/26 06:44:37;;;;;;;23.07;14.00;;;;;;;;;;4996484;28;20264;-60
2023/01/26 06:47:06;;;;;;;47.60;19.67;;;;;;;;;;4996719;28;20210;-59
2023/01/26 06:49:34;;;;;;;47.30;17.83;;;;;;;;;;4996898;28;20229;-60
2023/01/26 06:52:18;;;;;;;32.00;13.40;;;;;;;;;;4996860;28;20206;-60
2023/01/26 06:54:49;;;;;;;94.07;65.23;;;;;;;;;;4996522;28;20225;-59
2023/01/26 06:57:42;;;;;;;41.90;24.37;;;;;;;;;;4997091;28;20205;-60
2023/01/26 07:00:32;;;;;;;31.30;15.83;;;;;;;;;;4978553;28;20293;-60
2023/01/26 07:03:12;;;;;;;80.20;25.03;;;;;;;;;;4997522;28;20234;-60
2023/01/26 07:05:39;;;;;;;37.57;15.50;;;;;;;;;;4997482;28;20202;-60
2023/01/26 07:08:07;;;;;;;27.13;14.30;;;;;;;;;;4997045;28;20221;-60
2023/01/26 07:10:35;;;;;;;27.57;13.27;;;;;;;;;;4997179;28;20635;-61
2023/01/26 07:13:03;;;;;;;28.70;14.10;;;;;;;;;;4997418;28;20304;-60
2023/01/26 07:15:30;;;;;;;26.63;13.73;;;;;;;;;;4997477;28;20210;-60
2023/01/26 07:17:58;;;;;;;24.63;13.43;;;;;;;;;;4993328;28;20261;-60
2023/01/26 07:20:26;;;;;;;40.77;15.00;;;;;;;;;;4985398;28;20227;-62
2023/01/26 07:22:53;;;;;;;35.97;14.57;;;;;;;;;;4994500;28;20222;-59
2023/01/26 07:25:20;;;;;;;27.27;11.77;;;;;;;;;;4996071;28;20245;-60
2023/01/26 07:27:48;;;;;;;18.13;9.43;;;;;;;;;;4995689;28;20229;-57
2023/01/26 07:30:15;;;;;;;18.87;8.93;;;;;;;;;;4995453;28;20694;-60
2023/01/26 07:32:42;;;;;;;18.60;8.80;;;;;;;;;;4994981;28;20234;-59
2023/01/26 07:35:09;;;;;;;25.40;11.13;;;;;;;;;;4995962;28;20670;-60
2023/01/26 07:37:36;;;;;;;188.07;76.30;;;;;;;;;;4996128;28;20626;-58
2023/01/26 07:40:04;;;;;;;200.90;108.43;;;;;;;;;;4995339;28;20697;-59
2023/01/26 07:42:32;;;;;;;42.63;19.37;;;;;;;;;;4996308;28;20584;-60
2023/01/26 07:45:19;;;;;;;23.87;11.57;;;;;;;;;;4997435;28;20226;-60
2023/01/26 07:47:46;;;;;;;38.13;14.00;;;;;;;;;;4995499;28;20222;-59
2023/01/26 07:50:14;;;;;;;16.97;9.87;;;;;;;;;;4995570;28;20226;-60
2023/01/26 07:52:42;;;;;;;22.97;10.27;;;;;;;;;;4995516;28;20233;-59
2023/01/26 07:55:10;;;;;;;23.33;10.43;;;;;;;;;;4994991;28;20670;-60
2023/01/26 07:57:37;;;;;;;18.03;10.20;;;;;;;;;;4995785;28;20244;-59
2023/01/26 08:00:05;;;;;;;137.70;49.77;;;;;;;;;;4995413;28;20210;-61
2023/01/26 08:02:37;;;;;;;33.60;14.97;;;;;;;;;;4994718;28;20542;-59
2023/01/26 08:05:05;;;;;;;24.73;11.17;;;;;;;;;;4995251;28;20678;-61
2023/01/26 08:07:32;;;;;;;37.03;14.47;;;;;;;;;;4995842;28;20292;-60
2023/01/26 08:09:59;;;;;;;25.73;12.73;;;;;;;;;;4994591;28;20230;-59
2023/01/26 08:12:27;;;;;;;18.50;9.77;;;;;;;;;;4995760;28;20537;-61
2023/01/26 08:14:54;;;;;;;16.33;9.77;;;;;;;;;;4982110;28;20243;-60
2023/01/26 08:17:21;;;;;;;18.40;12.37;;;;;;;;;;4975707;28;20238;-60
2023/01/26 08:19:48;;;;;;;88.33;35.20;;;;;;;;;;4975494;28;20246;-60
2023/01/26 08:22:15;;;;;;;37.77;17.50;;;;;;;;;;4989883;28;20670;-59
2023/01/26 08:24:42;;;;;;;47.43;16.67;;;;;;;;;;5014218;28;20295;-59
2023/01/26 08:27:09;;;;;;;214.00;100.33;;;;;;;;;;5014957;28;20229;-61
2023/01/26 08:29:36;;;;;;;118.27;50.50;;;;;;;;;;5013962;28;20248;-59
2023/01/26 08:32:04;;;;;;;41.47;19.90;;;;;;;;;;5014125;28;20705;-60
2023/01/26 08:34:31;;;;;;;27.40;15.30;;;;;;;;;;5014666;28;20233;-59
2023/01/26 08:36:58;;;;;;;22.60;11.53;;;;;;;;;;5014241;28;20226;-61
2023/01/26 08:39:25;;;;;;;33.37;14.47;;;;;;;;;;5014309;28;20253;-60
2023/01/26 08:41:53;;;;;;;26.00;12.77;;;;;;;;;;5014229;28;20221;-62
2023/01/26 08:44:20;;;;;;;20.87;11.33;;;;;;;;;;5014383;28;20232;-62
2023/01/26 08:46:47;;;;;;;24.07;12.50;;;;;;;;;;5013557;28;20268;-61
2023/01/26 08:49:15;;;;;;;37.87;21.13;;;;;;;;;;5013426;28;20764;-60
2023/01/26 08:51:42;;;;;;;36.73;17.30;;;;;;;;;;5013018;28;20674;-59
2023/01/26 08:54:09;;;;;;;30.30;14.03;;;;;;;;;;5014112;28;20271;-61
2023/01/26 08:56:36;;;;;;;33.70;15.63;;;;;;;;;;5014041;28;20307;-60
2023/01/26 08:59:03;;;;;;;36.50;16.90;;;;;;;;;;5014067;28;20677;-61
2023/01/26 09:01:30;;;;;;;34.57;15.53;;;;;;;;;;5013468;28;20666;-61
2023/01/26 09:03:57;;;;;;;35.50;17.23;;;;;;;;;;5013625;28;20589;-60
2023/01/26 09:06:27;;;;;;;36.90;16.73;;;;;;;;;;5014005;28;20697;-63
2023/01/26 09:08:54;;;;;;;104.43;44.87;;;;;;;;;;5013961;28;20237;-62
2023/01/26 09:11:21;;;;;;;67.33;23.70;;;;;;;;;;5013003;28;20614;-61
2023/01/26 09:13:55;;;;;;;57.80;23.57;;;;;;;;;;5013930;28;20229;-63
2023/01/26 09:16:23;;;;;;;42.07;17.73;;;;;;;;;;5013746;28;20235;-61
2023/01/26 09:18:51;;;;;;;31.77;15.87;;;;;;;;;;5013906;28;20304;-63
2023/01/26 09:21:19;;;;;;;27.77;15.23;;;;;;;;;;5013891;28;20231;-62
2023/01/26 09:23:46;;;;;;;36.97;16.03;;;;;;;;;;5014022;28;20240;-64
2023/01/26 09:26:14;;;;;;;41.73;30.10;;;;;;;;;;5013705;28;20264;-64
2023/01/26 09:28:41;;;;;;;209.33;88.53;;;;;;;;;;5013848;28;20233;-61
2023/01/26 09:31:11;;;;;;;321.93;153.67;;;;;;;;;;5013184;28;20546;-57
2023/01/26 09:33:38;;;;;;;71.30;30.57;;;;;;;;;;5004904;28;20238;-60
2023/01/26 09:36:09;;;;;;;46.47;22.20;;;;;;;;;;4994479;28;20230;-64
2023/01/26 09:38:37;;;;;;;37.93;17.03;;;;;;;;;;4994151;28;20236;-62
2023/01/26 09:41:35;;;;;;;47.67;19.87;;;;;;;;;;4994203;28;20686;-63
2023/01/26 09:44:08;;;;;;;28.83;14.37;;;;;;;;;;4994376;28;20241;-66
2023/01/26 09:46:57;;;;;;;25.73;13.83;;;;;;;;;;4993570;28;20284;-66
2023/01/26 09:49:35;;;;;;;22.97;12.40;;;;;;;;;;4994167;28;20222;-63
2023/01/26 09:52:15;;;;;;;167.27;56.37;;;;;;;;;;4993770;28;20226;-63
2023/01/26 09:54:46;;;;;;;31.60;17.07;;;;;;;;;;4994010;28;20233;-59
2023/01/26 09:57:36;;;;;;;25.37;13.23;;;;;;;;;;4993046;28;20583;-62
2023/01/26 10:00:19;;;;;;;25.30;12.53;;;;;;;;;;4985963;28;20230;-62
2023/01/26 10:02:46;;;;;;;23.37;12.17;;;;;;;;;;4984899;28;20296;-60
2023/01/26 10:05:20;;;;;;;25.97;13.60;;;;;;;;;;4997292;28;20691;-61
2023/01/26 10:07:47;;;;;;;14.40;10.50;;;;;;;;;;4997214;28;20591;-61
2023/01/26 10:10:28;;;;;;;36.00;14.60;;;;;;;;;;4997546;28;20783;-61
2023/01/26 10:12:56;;;;;;;43.40;21.97;;;;;;;;;;4996930;28;20234;-61
2023/01/26 10:15:37;;;;;;;29.77;14.63;;;;;;;;;;4996884;28;20667;-62
2023/01/26 10:18:07;;;;;;;26.63;12.93;;;;;;;;;;4996143;28;20236;-62
2023/01/26 10:20:38;;;;;;;24.37;11.90;;;;;;;;;;4997308;28;20222;-57
2023/01/26 10:23:23;;;;;;;29.93;13.00;;;;;;;;;;4995983;28;20230;-62
2023/01/26 10:25:51;;;;;;;18.80;11.07;;;;;;;;;;4996920;28;20667;-62
2023/01/26 10:28:24;;;;;;;25.87;13.63;;;;;;;;;;4996464;28;20275;-63
2023/01/26 10:30:51;;;;;;;151.03;52.67;;;;;;;;;;4995621;28;20232;-62
2023/01/26 10:33:27;;;;;;;500.93;204.77;;;;;;;;;;4996824;28;20575;-62
2023/01/26 10:35:54;;;;;;;437.67;187.60;;;;;;;;;;4994851;28;20233;-61
2023/01/26 10:38:27;;;;;;;102.03;41.70;;;;;;;;;;4995691;28;20305;-60
2023/01/26 10:40:54;;;;;;;53.33;24.97;;;;;;;;;;4995987;28;20225;-63
2023/01/26 10:43:23;;;;;;;37.13;17.43;;;;;;;;;;4996098;28;20226;-58
2023/01/26 10:45:50;;;;;;;37.13;16.57;;;;;;;;;;4994548;28;20298;-61
2023/01/26 10:48:20;;;;;;;23.83;13.57;;;;;;;;;;4995566;28;20234;-65
2023/01/26 10:50:47;;;;;;;32.23;14.83;;;;;;;;;;4995925;28;20222;-60
2023/01/26 10:53:27;;;;;;;22.67;11.57;;;;;;;;;;4995505;28;20229;-58
2023/01/26 10:56:06;;;;;;;78.40;35.50;;;;;;;;;;4995901;28;20241;-64
2023/01/26 10:58:56;;;;;;;135.70;65.57;;;;;;;;;;4995826;28;20226;-60
2023/01/26 11:01:26;;;;;;;120.43;58.13;;;;;;;;;;4995462;28;20226;-59
2023/01/26 11:04:05;;;;;;;92.73;53.27;;;;;;;;;;4995575;28;20229;-63
2023/01/26 11:06:33;;;;;;;41.67;15.90;;;;;;;;;;4999594;28;20240;-61
2023/01/26 11:09:24;;;;;;;40.83;18.97;;;;;;;;;;5009046;28;20229;-61
2023/01/26 11:11:57;;;;;;;33.60;17.33;;;;;;;;;;4996107;28;20281;-60
2023/01/26 11:14:24;;;;;;;52.10;29.80;;;;;;;;;;4994472;28;20592;-60
2023/01/26 11:17:04;;;;;;;32.37;17.40;;;;;;;;;;4992860;28;20530;-59
2023/01/26 11:19:47;;;;;;;34.27;15.53;;;;;;;;;;5009483;28;20229;-59
2023/01/26 11:22:18;;;;;;;50.93;19.03;;;;;;;;;;4996004;28;20253;-61
2023/01/26 11:24:54;;;;;;;45.03;15.03;;;;;;;;;;5010315;28;20262;-63
2023/01/26 11:27:24;;;;;;;37.17;15.47;;;;;;;;;;5010296;28;20225;-58
2023/01/26 11:29:54;;;;;;;47.70;21.97;;;;;;;;;;4994602;28;20244;-63
2023/01/26 11:32:59;;;;;;;544.50;200.20;;;;;;;;;;4995066;28;20245;-60
2023/01/26 11:35:40;;;;;;;491.37;201.70;;;;;;;;;;4993839;28;20541;-61
2023/01/26 11:38:37;;;;;;;92.33;38.03;;;;;;;;;;5011177;28;20226;-58
2023/01/26 11:41:23;;;;;;;32.90;17.63;;;;;;;;;;5010308;28;20550;-63
2023/01/26 11:44:04;;;;;;;26.00;14.33;;;;;;;;;;4993437;28;20297;-62
2023/01/26 11:47:16;;;;;;;20.37;10.93;;;;;;;;;;5009072;28;20557;-59
2023/01/26 11:49:50;;;;;;;19.40;10.60;;;;;;;;;;4983529;28;20232;-59
2023/01/26 11:52:32;;;;;;;20.00;11.20;;;;;;;;;;4995221;28;20598;-61
2023/01/26 11:55:05;;;;;;;87.37;34.67;;;;;;;;;;4994917;28;20238;-62
2023/01/26 11:58:11;;;;;;;27.27;18.43;;;;;;;;;;4995698;28;20222;-60
2023/01/26 12:00:48;;;;;;;29.37;12.07;;;;;;;;;;4994379;28;20729;-59
2023/01/26 12:03:40;;;;;;;28.10;12.03;;;;;;;;;;4994980;28;20246;-60
2023/01/26 12:06:15;;;;;;;24.37;10.60;;;;;;;;;;4993596;28;20313;-62
2023/01/26 12:08:50;;;;;;;30.17;13.60;;;;;;;;;;4995442;28;20557;-59
2023/01/26 12:11:34;;;;;;;27.90;11.67;;;;;;;;;;5010371;28;20225;-60
2023/01/26 12:14:25;;;;;;;38.50;14.10;;;;;;;;;;5010514;28;20623;-60
2023/01/26 12:17:04;;;;;;;104.33;44.90;;;;;;;;;;4987601;28;20221;-60
2023/01/26 12:20:14;;;;;;;67.67;36.07;;;;;;;;;;4994855;28;20234;-60
2023/01/26 12:22:45;;;;;;;51.77;19.40;;;;;;;;;;4974419;28;20229;-60
2023/01/26 12:25:23;;;;;;;24.30;10.73;;;;;;;;;;4994430;28;20221;-60
2023/01/26 12:28:16;;;;;;;17.53;9.97;;;;;;;;;;4993726;28;20226;-61
2023/01/26 12:30:46;;;;;;;17.93;9.30;;;;;;;;;;4993959;28;20694;-61
2023/01/26 12:33:14;;;;;;;45.80;13.07;;;;;;;;;;4995002;28;20230;-61
2023/01/26 12:35:59;;;;;;;27.07;11.27;;;;;;;;;;4994485;28;20706;-59
2023/01/26 12:38:38;;;;;;;41.83;14.00;;;;;;;;;;4994066;28;20296;-60
2023/01/26 12:41:35;;;;;;;238.10;77.37;;;;;;;;;;4994629;28;20616;-61
2023/01/26 12:44:24;;;;;;;29.73;13.73;;;;;;;;;;4994773;28;20279;-61
2023/01/26 12:46:57;;;;;;;72.67;20.43;;;;;;;;;;4994112;28;20229;-62
2023/01/26 12:50:11;;;;;;;32.93;13.90;;;;;;;;;;5010348;28;20238;-63
2023/01/26 12:52:42;;;;;;;19.97;9.43;;;;;;;;;;4963886;28;20682;-58
2023/01/26 12:55:09;;;;;;;32.60;11.77;;;;;;;;;;4993542;28;20248;-63
2023/01/26 12:57:48;;;;;;;36.90;11.47;;;;;;;;;;4993499;28;20215;-65
2023/01/26 13:00:31;;;;;;;202.77;72.77;;;;;;;;;;5008688;28;20248;-59
2023/01/26 13:03:12;;;;;;;416.30;165.53;;;;;;;;;;4976888;28;20248;-63
2023/01/26 13:05:53;;;;;;;46.57;19.80;;;;;;;;;;4992877;28;20260;-56
2023/01/26 13:08:29;;;;;;;20.60;12.40;;;;;;;;;;4992782;28;20260;-58
2023/01/26 13:10:58;;;;;;;24.03;11.60;;;;;;;;;;4994341;28;20521;-63
2023/01/26 13:13:27;;;;;;;35.27;12.23;;;;;;;;;;4996406;28;20704;-60
2023/01/26 13:16:15;;;;;;;28.20;11.20;;;;;;;;;;4993625;28;21473;-61
2023/01/26 13:18:48;;;;;;;30.33;11.33;;;;;;;;;;4994151;28;20307;-61
2023/01/26 13:21:37;;;;;;;14.20;7.90;;;;;;;;;;4994771;28;20227;-61
2023/01/26 13:24:16;;;;;;;107.53;41.97;;;;;;;;;;4994367;28;20221;-59
2023/01/26 13:26:49;;;;;;;24.87;13.53;;;;;;;;;;4994060;28;20279;-62
2023/01/26 13:29:31;;;;;;;15.13;9.93;;;;;;;;;;4993897;28;20284;-60
2023/01/26 13:32:20;;;;;;;35.43;12.03;;;;;;;;;;4994407;28;20304;-63
2023/01/26 13:34:58;;;;;;;22.87;9.73;;;;;;;;;;4994248;28;20237;-61
2023/01/26 13:37:57;;;;;;;29.33;11.30;;;;;;;;;;4993260;28;20697;-60
2023/01/26 13:40:35;;;;;;;25.67;10.23;;;;;;;;;;4998047;28;20230;-61
2023/01/26 13:43:07;;;;;;;30.00;11.73;;;;;;;;;;4997816;28;20226;-64
2023/01/26 13:46:14;;;;;;;95.47;34.67;;;;;;;;;;4997786;28;20230;-60
2023/01/26 13:48:52;;;;;;;29.87;11.33;;;;;;;;;;4996776;28;20249;-59
2023/01/26 13:51:25;;;;;;;51.77;14.90;;;;;;;;;;4998097;28;20612;-58
2023/01/26 13:53:57;;;;;;;33.77;12.53;;;;;;;;;;4997351;28;20240;-60
2023/01/26 13:56:30;;;;;;;34.00;12.23;;;;;;;;;;4996973;28;20246;-60
2023/01/26 13:59:09;;;;;;;88.00;24.27;;;;;;;;;;4996847;28;20608;-62
2023/01/26 14:01:46;;;;;;;600.50;227.17;;;;;;;;;;4997780;28;20255;-60
2023/01/26 14:04:20;;;;;;;455.37;170.93;;;;;;;;;;4997219;28;20237;-61
2023/01/26 14:07:06;;;;;;;203.80;67.13;;;;;;;;;;4996962;28;20217;-61
2023/01/26 14:09:45;;;;;;;119.00;39.73;;;;;;;;;;4997752;28;20268;-61
2023/01/26 14:12:21;;;;;;;141.33;37.80;;;;;;;;;;4997098;28;20230;-60
2023/01/26 14:14:51;;;;;;;129.67;32.40;;;;;;;;;;4995923;28;20257;-60
2023/01/26 14:17:33;;;;;;;75.00;19.80;;;;;;;;;;4997570;28;20702;-61
2023/01/26 14:20:02;;;;;;;84.67;27.20;;;;;;;;;;4997124;28;20321;-60
2023/01/26 14:22:29;;;;;;;35.00;15.27;;;;;;;;;;4997332;28;20702;-61
2023/01/26 14:24:56;;;;;;;198.20;71.83;;;;;;;;;;5012326;28;20226;-60
2023/01/26 14:27:31;;;;;;;294.00;158.03;;;;;;;;;;4995985;28;20230;-60
2023/01/26 14:29:59;;;;;;;238.03;131.17;;;;;;;;;;4995688;28;20304;-59
2023/01/26 14:32:28;;;;;;;87.73;52.57;;;;;;;;;;4997375;28;20230;-58
2023/01/26 14:34:59;;;;;;;47.43;20.93;;;;;;;;;;4996690;28;20685;-62
2023/01/26 14:37:27;;;;;;;56.13;17.57;;;;;;;;;;4997519;28;20240;-61
2023/01/26 14:40:29;;;;;;;34.40;13.90;;;;;;;;;;4996757;28;20221;-61
2023/01/26 14:42:57;;;;;;;360.30;124.80;;;;;;;;;;4936599;29;20228;-59
2023/01/26 14:45:29;;;;;;;56.27;27.17;;;;;;;;;;4936052;29;20685;-60
2023/01/26 14:48:02;;;;;;;26.77;13.97;;;;;;;;;;4921593;29;20235;-60
2023/01/26 14:50:32;;;;;;;20.13;12.43;;;;;;;;;;4935820;29;20259;-61
2023/01/26 14:53:00;;;;;;;15.93;10.17;;;;;;;;;;4937290;29;20765;-58
2023/01/26 14:55:31;;;;;;;14.97;8.07;;;;;;;;;;4927220;29;20221;-58
2023/01/26 14:58:00;;;;;;;15.27;9.30;;;;;;;;;;4922370;29;20315;-60
2023/01/26 15:00:31;;;;;;;33.50;12.23;;;;;;;;;;4917549;29;20237;-58
2023/01/26 15:03:02;;;;;;;32.40;10.53;;;;;;;;;;4924087;29;20680;-59
2023/01/26 15:05:35;;;;;;;14.43;8.20;;;;;;;;;;4955953;28;20683;-58
2023/01/26 15:08:05;;;;;;;69.37;18.23;;;;;;;;;;4956303;29;20964;-58
2023/01/26 15:10:42;;;;;;;30.13;13.83;;;;;;;;;;4955236;28;20231;-59
2023/01/26 15:13:09;;;;;;;46.90;18.23;;;;;;;;;;4938519;29;20227;-59
2023/01/26 15:15:39;;;;;;;31.50;15.17;;;;;;;;;;4935761;29;20724;-58
2023/01/26 15:18:12;;;;;;;29.77;14.60;;;;;;;;;;4984397;28;20531;-59
2023/01/26 15:20:59;;;;;;;259.33;95.43;;;;;;;;;;4976582;28;20318;-59
2023/01/26 15:23:32;;;;;;;123.97;52.77;;;;;;;;;;4977052;28;20245;-59
2023/01/26 15:26:04;;;;;;;56.27;23.63;;;;;;;;;;4975262;28;20313;-60
2023/01/26 15:28:32;;;;;;;31.33;14.47;;;;;;;;;;4976650;28;20234;-59
2023/01/26 15:30:59;;;;;;;42.17;16.67;;;;;;;;;;4996404;28;20252;-60
2023/01/26 15:33:39;;;;;;;62.00;18.47;;;;;;;;;;4997883;28;20702;-60
2023/01/26 15:36:31;;;;;;;46.80;15.37;;;;;;;;;;5004058;28;20324;-59
2023/01/26 15:39:13;;;;;;;48.47;17.03;;;;;;;;;;4976540;28;20238;-60